sensor_id;sensor_type;location;lat;lon;timestamp;pressure;altitude;pressure_sealevel;temperature;humidity
60820;BME280;46641;48.904;9.126;2024-03-07T00:02:56;99135.44;;;12.08;67.76
60820;BME280;46641;48.904;9.126;2024-03-07T00:07:47;99135.59;;;12.06;67.40
60820;BME280;46641;48.904;9.126;2024-03-07T00:12:39;99130.63;;;12.03;67.56
60820;BME280;46641;48.904;9.126;2024-03-07T00:17:30;99129.66;;;12.04;67.64
60820;BME280;46641;48.904;9.126;2024-03-07T00:22:21;99133.81;;;12.07;67.53
60820;BME280;46641;48.904;9.126;2024-03-07T00:27:11;99131.03;;;12.08;67.61
60820;BME280;46641;48.904;9.126;2024-03-07T00:32:04;99137.94;;;12.09;67.31
60820;BME280;46641;48.904;9.126;2024-03-07T00:36:54;99129.53;;;12.06;67.64
60820;BME280;46641;48.904;9.126;2024-03-07T00:41:46;99135.72;;;12.05;67.58
60820;BME280;46641;48.904;9.126;2024-03-07T00:46:37;99135.88;;;12.03;67.44
60820;BME280;46641;48.904;9.126;2024-03-07T00:51:27;99135.19;;;12.01;67.53
60820;BME280;46641;48.904;9.126;2024-03-07T00:56:20;99126.66;;;11.99;67.22
60820;BME280;46641;48.904;9.126;2024-03-07T01:01:11;99121.09;;;11.92;67.31
60820;BME280;46641;48.904;9.126;2024-03-07T01:06:01;99130.13;;;11.90;67.07
60820;BME280;46641;48.904;9.126;2024-03-07T01:10:53;99125.38;;;11.84;67.04
60820;BME280;46641;48.904;9.126;2024-03-07T01:15:43;99126.78;;;11.78;67.16
60820;BME280;46641;48.904;9.126;2024-03-07T01:20:34;99121.53;;;11.78;67.65
60820;BME280;46641;48.904;9.126;2024-03-07T01:25:25;99109.25;;;11.79;67.33
60820;BME280;46641;48.904;9.126;2024-03-07T01:30:16;99121.53;;;11.78;67.42
60820;BME280;46641;48.904;9.126;2024-03-07T01:35:06;99117.38;;;11.76;67.47
60820;BME280;46641;48.904;9.126;2024-03-07T01:39:58;99109.66;;;11.74;67.59
60820;BME280;46641;48.904;9.126;2024-03-07T01:44:48;99113.13;;;11.75;67.74
60820;BME280;46641;48.904;9.126;2024-03-07T01:49:39;99103.44;;;11.75;67.52
60820;BME280;46641;48.904;9.126;2024-03-07T01:54:29;99095.72;;;11.74;67.61
60820;BME280;46641;48.904;9.126;2024-03-07T01:59:19;99087.88;;;11.74;67.51
60820;BME280;46641;48.904;9.126;2024-03-07T02:04:13;99095.03;;;11.72;67.66
60820;BME280;46641;48.904;9.126;2024-03-07T02:09:04;99081.78;;;11.73;67.38
60820;BME280;46641;48.904;9.126;2024-03-07T02:13:55;99073.09;;;11.73;67.56
60820;BME280;46641;48.904;9.126;2024-03-07T02:18:46;99070.63;;;11.71;67.46
60820;BME280;46641;48.904;9.126;2024-03-07T02:23:37;99068.97;;;11.70;67.50
60820;BME280;46641;48.904;9.126;2024-03-07T02:28:28;99068.13;;;11.69;67.32
60820;BME280;46641;48.904;9.126;2024-03-07T02:33:18;99057.91;;;11.66;67.50
60820;BME280;46641;48.904;9.126;2024-03-07T02:38:08;99056.53;;;11.62;67.50
60820;BME280;46641;48.904;9.126;2024-03-07T02:42:58;99067.31;;;11.59;67.83
60820;BME280;46641;48.904;9.126;2024-03-07T02:47:49;99066.47;;;11.59;67.86
60820;BME280;46641;48.904;9.126;2024-03-07T02:52:39;99056.00;;;11.59;67.48
60820;BME280;46641;48.904;9.126;2024-03-07T02:57:29;99042.06;;;11.58;67.40
60820;BME280;46641;48.904;9.126;2024-03-07T03:02:20;99044.00;;;11.56;67.69
60820;BME280;46641;48.904;9.126;2024-03-07T03:07:10;99039.88;;;11.54;67.77
60820;BME280;46641;48.904;9.126;2024-03-07T03:12:00;99043.59;;;11.51;67.51
60820;BME280;46641;48.904;9.126;2024-03-07T03:16:51;99037.66;;;11.49;67.53
60820;BME280;46641;48.904;9.126;2024-03-07T03:21:41;99035.19;;;11.48;67.73
60820;BME280;46641;48.904;9.126;2024-03-07T03:26:32;99030.09;;;11.46;67.71
60820;BME280;46641;48.904;9.126;2024-03-07T03:31:23;99038.22;;;11.43;67.78
60820;BME280;46641;48.904;9.126;2024-03-07T03:36:13;99048.03;;;11.41;67.83
60820;BME280;46641;48.904;9.126;2024-03-07T03:41:04;99043.75;;;11.40;67.86
60820;BME280;46641;48.904;9.126;2024-03-07T03:45:54;99046.78;;;11.35;67.66
60820;BME280;46641;48.904;9.126;2024-03-07T03:50:45;99049.53;;;11.34;67.79
60820;BME280;46641;48.904;9.126;2024-03-07T03:55:36;99043.63;;;11.32;67.66
60820;BME280;46641;48.904;9.126;2024-03-07T04:00:27;99038.66;;;11.29;67.86
60820;BME280;46641;48.904;9.126;2024-03-07T04:05:19;99037.13;;;11.26;67.69
60820;BME280;46641;48.904;9.126;2024-03-07T04:10:11;99038.38;;;11.22;67.83
60820;BME280;46641;48.904;9.126;2024-03-07T04:15:03;99037.03;;;11.18;67.93
60820;BME280;46641;48.904;9.126;2024-03-07T04:19:53;99038.94;;;11.16;67.76
60820;BME280;46641;48.904;9.126;2024-03-07T04:24:45;99040.03;;;11.13;68.08
60820;BME280;46641;48.904;9.126;2024-03-07T04:29:35;99029.97;;;11.09;68.23
60820;BME280;46641;48.904;9.126;2024-03-07T04:34:26;99038.94;;;11.06;67.88
60820;BME280;46641;48.904;9.126;2024-03-07T04:39:16;99037.13;;;11.07;68.09
60820;BME280;46641;48.904;9.126;2024-03-07T04:44:20;99027.63;;;11.06;67.93
60820;BME280;46641;48.904;9.126;2024-03-07T04:49:12;99028.72;;;11.03;68.06
60820;BME280;46641;48.904;9.126;2024-03-07T04:54:03;99027.09;;;11.02;67.85
60820;BME280;46641;48.904;9.126;2024-03-07T04:58:53;99026.38;;;11.00;67.88
60820;BME280;46641;48.904;9.126;2024-03-07T05:03:44;99032.59;;;10.99;68.04
60820;BME280;46641;48.904;9.126;2024-03-07T05:08:34;99033.41;;;10.99;68.10
60820;BME280;46641;48.904;9.126;2024-03-07T05:13:24;99027.34;;;10.99;67.81
60820;BME280;46641;48.904;9.126;2024-03-07T05:18:15;99035.34;;;10.97;68.07
60820;BME280;46641;48.904;9.126;2024-03-07T05:23:05;99039.31;;;10.92;68.08
60820;BME280;46641;48.904;9.126;2024-03-07T05:27:55;99040.28;;;10.91;68.14
60820;BME280;46641;48.904;9.126;2024-03-07T05:32:46;99037.00;;;10.89;68.34
60820;BME280;46641;48.904;9.126;2024-03-07T05:37:38;99033.69;;;10.87;67.68
60820;BME280;46641;48.904;9.126;2024-03-07T05:42:31;99033.25;;;10.82;67.70
60820;BME280;46641;48.904;9.126;2024-03-07T05:47:21;99031.47;;;10.82;67.76
60820;BME280;46641;48.904;9.126;2024-03-07T05:52:12;99031.75;;;10.79;67.74
60820;BME280;46641;48.904;9.126;2024-03-07T05:57:02;99027.63;;;10.76;67.83
60820;BME280;46641;48.904;9.126;2024-03-07T06:01:53;99025.13;;;10.75;67.83
60820;BME280;46641;48.904;9.126;2024-03-07T06:06:44;99028.69;;;10.74;68.46
60820;BME280;46641;48.904;9.126;2024-03-07T06:11:35;99021.00;;;10.72;68.07
60820;BME280;46641;48.904;9.126;2024-03-07T06:16:26;99028.16;;;10.70;68.14
60820;BME280;46641;48.904;9.126;2024-03-07T06:21:16;99024.81;;;10.68;67.99
60820;BME280;46641;48.904;9.126;2024-03-07T06:26:06;99027.03;;;10.53;65.42
60820;BME280;46641;48.904;9.126;2024-03-07T06:31:03;99024.41;;;10.23;62.60
60820;BME280;46641;48.904;9.126;2024-03-07T06:35:57;99027.31;;;9.89;61.64
60820;BME280;46641;48.904;9.126;2024-03-07T06:40:48;99019.75;;;9.65;61.68
60820;BME280;46641;48.904;9.126;2024-03-07T06:45:39;99020.47;;;9.46;61.00
60820;BME280;46641;48.904;9.126;2024-03-07T06:50:30;99019.53;;;8.94;62.15
60820;BME280;46641;48.904;9.126;2024-03-07T06:55:20;99027.28;;;9.38;63.08
60820;BME280;46641;48.904;9.126;2024-03-07T07:00:12;99029.00;;;9.48;63.47
60820;BME280;46641;48.904;9.126;2024-03-07T07:05:02;99028.13;;;9.59;63.25
60820;BME280;46641;48.904;9.126;2024-03-07T07:09:57;99036.84;;;9.69;63.10
60820;BME280;46641;48.904;9.126;2024-03-07T07:14:47;99035.63;;;9.73;63.69
60820;BME280;46641;48.904;9.126;2024-03-07T07:19:37;99035.22;;;9.78;63.76
60820;BME280;46641;48.904;9.126;2024-03-07T07:24:27;99030.69;;;9.80;64.10
60820;BME280;46641;48.904;9.126;2024-03-07T07:29:19;99024.75;;;9.78;63.88
60820;BME280;46641;48.904;9.126;2024-03-07T07:34:11;99023.09;;;9.77;64.21
60820;BME280;46641;48.904;9.126;2024-03-07T07:39:01;99015.97;;;9.79;63.94
60820;BME280;46641;48.904;9.126;2024-03-07T07:43:51;99024.63;;;9.79;63.39
60820;BME280;46641;48.904;9.126;2024-03-07T07:48:41;99011.56;;;9.79;64.11
60820;BME280;46641;48.904;9.126;2024-03-07T07:53:32;99008.81;;;9.81;63.81
60820;BME280;46641;48.904;9.126;2024-03-07T07:58:22;99007.16;;;9.80;64.12
60820;BME280;46641;48.904;9.126;2024-03-07T08:03:12;99010.75;;;9.79;63.81
60820;BME280;46641;48.904;9.126;2024-03-07T08:08:07;98999.59;;;9.77;64.27
60820;BME280;46641;48.904;9.126;2024-03-07T08:12:59;99000.41;;;9.77;64.13
60820;BME280;46641;48.904;9.126;2024-03-07T08:17:49;99004.81;;;9.77;64.23
60820;BME280;46641;48.904;9.126;2024-03-07T08:22:42;98992.56;;;9.77;64.69
60820;BME280;46641;48.904;9.126;2024-03-07T08:27:32;98996.41;;;9.73;62.33
60820;BME280;46641;48.904;9.126;2024-03-07T08:32:23;98999.72;;;9.75;63.12
60820;BME280;46641;48.904;9.126;2024-03-07T08:37:13;98988.16;;;9.78;62.87
60820;BME280;46641;48.904;9.126;2024-03-07T08:42:03;98982.66;;;9.81;64.01
60820;BME280;46641;48.904;9.126;2024-03-07T08:46:55;98996.19;;;9.86;63.53
60820;BME280;46641;48.904;9.126;2024-03-07T08:51:45;98993.44;;;9.88;64.61
60820;BME280;46641;48.904;9.126;2024-03-07T08:56:35;98989.47;;;9.93;64.17
60820;BME280;46641;48.904;9.126;2024-03-07T09:01:26;98994.31;;;9.98;63.74
60820;BME280;46641;48.904;9.126;2024-03-07T09:06:16;98989.09;;;9.98;64.38
60820;BME280;46641;48.904;9.126;2024-03-07T09:11:06;98983.59;;;10.01;64.45
60820;BME280;46641;48.904;9.126;2024-03-07T09:15:57;98975.19;;;10.07;64.63
60820;BME280;46641;48.904;9.126;2024-03-07T09:20:47;98971.50;;;10.10;64.88
60820;BME280;46641;48.904;9.126;2024-03-07T09:25:38;98981.59;;;10.14;64.77
60820;BME280;46641;48.904;9.126;2024-03-07T09:30:30;98969.88;;;10.18;63.99
60820;BME280;46641;48.904;9.126;2024-03-07T09:35:20;98968.81;;;10.21;64.41
60820;BME280;46641;48.904;9.126;2024-03-07T09:40:11;98963.06;;;10.27;64.61
60820;BME280;46641;48.904;9.126;2024-03-07T09:45:02;98958.50;;;10.29;65.02
60820;BME280;46641;48.904;9.126;2024-03-07T09:49:53;98958.94;;;10.34;65.10
60820;BME280;46641;48.904;9.126;2024-03-07T09:54:43;98963.66;;;10.40;65.13
60820;BME280;46641;48.904;9.126;2024-03-07T09:59:35;98959.50;;;10.47;63.87
60820;BME280;46641;48.904;9.126;2024-03-07T10:04:51;98962.94;;;10.48;63.38
60820;BME280;46641;48.904;9.126;2024-03-07T10:09:44;98953.19;;;10.50;65.04
60820;BME280;46641;48.904;9.126;2024-03-07T10:14:34;98948.50;;;10.53;65.35
60820;BME280;46641;48.904;9.126;2024-03-07T10:19:24;98957.31;;;10.62;65.34
60820;BME280;46641;48.904;9.126;2024-03-07T10:24:15;98952.63;;;10.75;65.47
60820;BME280;46641;48.904;9.126;2024-03-07T10:29:06;98950.59;;;10.89;64.81
60820;BME280;46641;48.904;9.126;2024-03-07T10:34:01;98940.66;;;11.02;65.60
60820;BME280;46641;48.904;9.126;2024-03-07T10:38:52;98937.75;;;11.15;65.34
60820;BME280;46641;48.904;9.126;2024-03-07T10:43:46;98935.22;;;11.33;65.42
60820;BME280;46641;48.904;9.126;2024-03-07T10:48:39;98933.78;;;11.48;64.00
60820;BME280;46641;48.904;9.126;2024-03-07T10:53:47;98926.31;;;11.53;64.02
60820;BME280;46641;48.904;9.126;2024-03-07T11:03:40;98919.66;;;11.68;64.54
60820;BME280;46641;48.904;9.126;2024-03-07T11:08:36;98918.25;;;11.74;63.60
60820;BME280;46641;48.904;9.126;2024-03-07T11:13:27;98905.66;;;11.78;64.35
60820;BME280;46641;48.904;9.126;2024-03-07T11:18:19;98900.78;;;11.83;64.94
60820;BME280;46641;48.904;9.126;2024-03-07T11:23:31;98904.84;;;11.87;63.04
60820;BME280;46641;48.904;9.126;2024-03-07T11:28:31;98894.72;;;11.92;64.38
60820;BME280;46641;48.904;9.126;2024-03-07T11:33:21;98877.72;;;11.96;64.38
60820;BME280;46641;48.904;9.126;2024-03-07T11:38:11;98878.91;;;12.02;64.98
60820;BME280;46641;48.904;9.126;2024-03-07T11:43:03;98868.81;;;12.07;64.31
60820;BME280;46641;48.904;9.126;2024-03-07T11:47:57;98863.13;;;12.11;64.65
60820;BME280;46641;48.904;9.126;2024-03-07T11:52:50;98857.56;;;12.14;63.80
60820;BME280;46641;48.904;9.126;2024-03-07T11:57:40;98860.59;;;11.27;64.70
60820;BME280;46641;48.904;9.126;2024-03-07T12:02:37;98848.25;;;11.47;59.30
60820;BME280;46641;48.904;9.126;2024-03-07T12:07:27;98848.25;;;11.10;58.85
60820;BME280;46641;48.904;9.126;2024-03-07T12:12:17;98852.50;;;11.20;60.28
60820;BME280;46641;48.904;9.126;2024-03-07T12:17:08;98839.75;;;10.98;59.56
60820;BME280;46641;48.904;9.126;2024-03-07T12:22:02;98840.91;;;11.23;60.54
60820;BME280;46641;48.904;9.126;2024-03-07T12:26:53;98837.16;;;11.63;61.51
60820;BME280;46641;48.904;9.126;2024-03-07T12:31:45;98831.53;;;11.85;60.22
60820;BME280;46641;48.904;9.126;2024-03-07T12:36:35;98827.91;;;11.96;60.50
60820;BME280;46641;48.904;9.126;2024-03-07T12:41:35;98823.53;;;11.87;59.63
60820;BME280;46641;48.904;9.126;2024-03-07T12:46:25;98825.56;;;11.93;59.93
60820;BME280;46641;48.904;9.126;2024-03-07T12:51:17;98815.66;;;12.05;59.35
60820;BME280;46641;48.904;9.126;2024-03-07T12:56:08;98811.84;;;11.99;59.76
60820;BME280;46641;48.904;9.126;2024-03-07T13:00:59;98810.94;;;12.08;59.20
60820;BME280;46641;48.904;9.126;2024-03-07T13:05:50;98810.34;;;12.14;59.74
60820;BME280;46641;48.904;9.126;2024-03-07T13:10:44;98815.97;;;12.20;60.41
60820;BME280;46641;48.904;9.126;2024-03-07T13:15:35;98818.53;;;12.29;60.65
60820;BME280;46641;48.904;9.126;2024-03-07T13:20:27;98811.69;;;12.36;60.41
60820;BME280;46641;48.904;9.126;2024-03-07T13:25:20;98818.75;;;12.36;60.90
60820;BME280;46641;48.904;9.126;2024-03-07T13:30:11;98813.19;;;12.39;60.24
60820;BME280;46641;48.904;9.126;2024-03-07T13:35:06;98814.00;;;12.39;60.39
60820;BME280;46641;48.904;9.126;2024-03-07T13:40:01;98814.69;;;12.42;60.37
60820;BME280;46641;48.904;9.126;2024-03-07T13:45:12;98807.66;;;12.42;60.18
60820;BME280;46641;48.904;9.126;2024-03-07T13:50:03;98807.34;;;12.45;59.48
60820;BME280;46641;48.904;9.126;2024-03-07T13:54:53;98801.94;;;12.47;59.86
60820;BME280;46641;48.904;9.126;2024-03-07T13:59:56;98796.25;;;12.51;59.67
60820;BME280;46641;48.904;9.126;2024-03-07T14:15:38;98793.91;;;12.48;58.62
60820;BME280;46641;48.904;9.126;2024-03-07T14:30:52;98768.47;;;12.49;57.65
60820;BME280;46641;48.904;9.126;2024-03-07T14:36:02;98766.00;;;12.47;59.39
60820;BME280;46641;48.904;9.126;2024-03-07T14:40:55;98767.41;;;12.59;59.29
60820;BME280;46641;48.904;9.126;2024-03-07T14:45:47;98761.53;;;12.66;60.14
60820;BME280;46641;48.904;9.126;2024-03-07T14:50:39;98757.63;;;12.70;59.57
60820;BME280;46641;48.904;9.126;2024-03-07T14:55:31;98768.63;;;12.73;59.92
60820;BME280;46641;48.904;9.126;2024-03-07T15:00:22;98763.16;;;12.67;59.43
60820;BME280;46641;48.904;9.126;2024-03-07T15:05:17;98749.31;;;11.77;62.09
60820;BME280;46641;48.904;9.126;2024-03-07T15:10:14;98746.38;;;12.33;59.78
60820;BME280;46641;48.904;9.126;2024-03-07T15:15:08;98743.09;;;12.57;59.83
60820;BME280;46641;48.904;9.126;2024-03-07T15:20:04;98737.41;;;12.70;58.17
60820;BME280;46641;48.904;9.126;2024-03-07T15:24:56;98734.25;;;12.58;56.58
60820;BME280;46641;48.904;9.126;2024-03-07T15:29:49;98737.84;;;12.57;59.22
60820;BME280;46641;48.904;9.126;2024-03-07T15:34:39;98733.16;;;12.69;59.07
60820;BME280;46641;48.904;9.126;2024-03-07T15:39:29;98732.03;;;12.72;59.14
60820;BME280;46641;48.904;9.126;2024-03-07T15:44:20;98732.84;;;12.72;58.66
60820;BME280;46641;48.904;9.126;2024-03-07T15:49:11;98723.84;;;12.75;58.28
60820;BME280;46641;48.904;9.126;2024-03-07T15:54:03;98721.34;;;12.73;58.93
60820;BME280;46641;48.904;9.126;2024-03-07T15:58:54;98722.19;;;12.74;58.64
60820;BME280;46641;48.904;9.126;2024-03-07T16:03:45;98719.22;;;12.69;57.69
60820;BME280;46641;48.904;9.126;2024-03-07T16:08:36;98714.28;;;12.66;58.75
60820;BME280;46641;48.904;9.126;2024-03-07T16:13:26;98712.63;;;12.65;58.31
60820;BME280;46641;48.904;9.126;2024-03-07T16:18:17;98707.72;;;12.70;58.08
60820;BME280;46641;48.904;9.126;2024-03-07T16:23:10;98706.41;;;12.74;58.18
60820;BME280;46641;48.904;9.126;2024-03-07T16:28:01;98705.28;;;12.76;58.60
60820;BME280;46641;48.904;9.126;2024-03-07T16:32:55;98700.84;;;12.77;58.34
60820;BME280;46641;48.904;9.126;2024-03-07T16:37:52;98699.53;;;12.73;57.96
60820;BME280;46641;48.904;9.126;2024-03-07T16:42:47;98691.97;;;12.70;57.45
60820;BME280;46641;48.904;9.126;2024-03-07T16:47:45;98700.47;;;12.63;59.27
60820;BME280;46641;48.904;9.126;2024-03-07T16:52:38;98696.19;;;12.62;59.06
60820;BME280;46641;48.904;9.126;2024-03-07T16:57:28;98694.69;;;12.60;59.56
60820;BME280;46641;48.904;9.126;2024-03-07T17:02:18;98706.88;;;12.61;59.33
60820;BME280;46641;48.904;9.126;2024-03-07T17:07:10;98692.25;;;12.58;59.40
60820;BME280;46641;48.904;9.126;2024-03-07T17:12:02;98698.63;;;12.56;59.53
60820;BME280;46641;48.904;9.126;2024-03-07T17:16:55;98694.81;;;12.50;60.30
60820;BME280;46641;48.904;9.126;2024-03-07T17:21:46;98702.69;;;12.50;60.58
60820;BME280;46641;48.904;9.126;2024-03-07T17:26:36;98700.75;;;12.52;61.29
60820;BME280;46641;48.904;9.126;2024-03-07T17:31:27;98701.03;;;12.49;61.17
60820;BME280;46641;48.904;9.126;2024-03-07T17:36:17;98696.09;;;12.46;60.53
60820;BME280;46641;48.904;9.126;2024-03-07T17:41:08;98701.84;;;12.42;60.75
60820;BME280;46641;48.904;9.126;2024-03-07T17:45:58;98707.22;;;12.40;61.31
60820;BME280;46641;48.904;9.126;2024-03-07T17:50:49;98705.41;;;12.40;60.47
60820;BME280;46641;48.904;9.126;2024-03-07T17:55:40;98712.13;;;12.35;61.48
60820;BME280;46641;48.904;9.126;2024-03-07T18:00:36;98722.28;;;12.38;60.87
60820;BME280;46641;48.904;9.126;2024-03-07T18:05:28;98716.53;;;12.34;61.68
60820;BME280;46641;48.904;9.126;2024-03-07T18:10:26;98715.69;;;12.34;61.56
60820;BME280;46641;48.904;9.126;2024-03-07T18:15:22;98709.94;;;12.30;61.36
60820;BME280;46641;48.904;9.126;2024-03-07T18:20:17;98711.56;;;12.31;61.71
60820;BME280;46641;48.904;9.126;2024-03-07T18:25:08;98706.31;;;12.31;61.06
60820;BME280;46641;48.904;9.126;2024-03-07T18:29:58;98696.47;;;12.25;61.42
60820;BME280;46641;48.904;9.126;2024-03-07T18:35:00;98692.03;;;12.26;61.07
60820;BME280;46641;48.904;9.126;2024-03-07T18:39:51;98689.03;;;12.21;60.17
60820;BME280;46641;48.904;9.126;2024-03-07T18:44:45;98683.97;;;12.19;61.07
60820;BME280;46641;48.904;9.126;2024-03-07T18:49:39;98690.03;;;12.20;61.00
60820;BME280;46641;48.904;9.126;2024-03-07T18:54:29;98676.91;;;12.20;61.76
60820;BME280;46641;48.904;9.126;2024-03-07T18:59:20;98676.22;;;12.18;60.99
60820;BME280;46641;48.904;9.126;2024-03-07T19:04:10;98677.22;;;12.16;61.97
60820;BME280;46641;48.904;9.126;2024-03-07T19:09:00;98682.00;;;12.21;61.31
60820;BME280;46641;48.904;9.126;2024-03-07T19:13:51;98682.00;;;12.21;61.43
60820;BME280;46641;48.904;9.126;2024-03-07T19:18:43;98672.47;;;12.20;60.82
60820;BME280;46641;48.904;9.126;2024-03-07T19:23:33;98676.22;;;12.18;61.73
60820;BME280;46641;48.904;9.126;2024-03-07T19:28:25;98670.97;;;12.18;61.44
60820;BME280;46641;48.904;9.126;2024-03-07T19:33:16;98664.09;;;12.16;61.35
60820;BME280;46641;48.904;9.126;2024-03-07T19:38:10;98660.97;;;12.13;61.34
60820;BME280;46641;48.904;9.126;2024-03-07T19:43:00;98665.09;;;12.15;61.71
60820;BME280;46641;48.904;9.126;2024-03-07T19:47:54;98667.03;;;12.13;61.83
60820;BME280;46641;48.904;9.126;2024-03-07T19:52:45;98661.78;;;12.13;61.87
60820;BME280;46641;48.904;9.126;2024-03-07T19:57:37;98657.81;;;12.09;61.22
60820;BME280;46641;48.904;9.126;2024-03-07T20:02:28;98657.13;;;12.07;61.18
60820;BME280;46641;48.904;9.126;2024-03-07T20:07:20;98644.19;;;12.06;60.99
60820;BME280;46641;48.904;9.126;2024-03-07T20:12:10;98640.88;;;12.04;61.05
60820;BME280;46641;48.904;9.126;2024-03-07T20:17:00;98642.00;;;12.01;61.53
60820;BME280;46641;48.904;9.126;2024-03-07T20:21:50;98642.00;;;12.01;61.56
60820;BME280;46641;48.904;9.126;2024-03-07T20:26:41;98642.31;;;11.98;60.64
60820;BME280;46641;48.904;9.126;2024-03-07T20:31:38;98638.06;;;11.97;61.51
60820;BME280;46641;48.904;9.126;2024-03-07T20:36:28;98638.88;;;11.98;61.35
60820;BME280;46641;48.904;9.126;2024-03-07T20:41:18;98637.88;;;11.99;61.49
60820;BME280;46641;48.904;9.126;2024-03-07T20:46:09;98636.75;;;12.01;61.25
60820;BME280;46641;48.904;9.126;2024-03-07T20:51:00;98633.16;;;12.02;61.19
60820;BME280;46641;48.904;9.126;2024-03-07T20:55:50;98629.72;;;12.02;61.52
60820;BME280;46641;48.904;9.126;2024-03-07T21:00:40;98629.19;;;11.98;60.95
60820;BME280;46641;48.904;9.126;2024-03-07T21:05:37;98632.28;;;11.93;62.26
60820;BME280;46641;48.904;9.126;2024-03-07T21:10:32;98631.16;;;11.96;62.10
60820;BME280;46641;48.904;9.126;2024-03-07T21:15:25;98621.31;;;11.98;62.03
60820;BME280;46641;48.904;9.126;2024-03-07T21:20:16;98625.63;;;11.99;61.77
60820;BME280;46641;48.904;9.126;2024-03-07T21:25:10;98621.31;;;11.98;61.46
60820;BME280;46641;48.904;9.126;2024-03-07T21:30:06;98628.56;;;11.96;62.14
60820;BME280;46641;48.904;9.126;2024-03-07T21:34:56;98629.38;;;11.97;62.09
60820;BME280;46641;48.904;9.126;2024-03-07T21:39:47;98623.31;;;11.96;62.11
60820;BME280;46641;48.904;9.126;2024-03-07T21:44:39;98627.69;;;11.96;61.88
60820;BME280;46641;48.904;9.126;2024-03-07T21:49:29;98624.25;;;11.95;62.51
60820;BME280;46641;48.904;9.126;2024-03-07T21:54:27;98617.22;;;11.96;62.35
60820;BME280;46641;48.904;9.126;2024-03-07T21:59:17;98611.44;;;11.92;62.25
60820;BME280;46641;48.904;9.126;2024-03-07T22:04:07;98612.44;;;11.91;62.21
60820;BME280;46641;48.904;9.126;2024-03-07T22:08:58;98617.97;;;11.88;62.76
60820;BME280;46641;48.904;9.126;2024-03-07T22:13:49;98611.09;;;11.87;62.75
60820;BME280;46641;48.904;9.126;2024-03-07T22:18:41;98603.38;;;11.85;62.64
60820;BME280;46641;48.904;9.126;2024-03-07T22:23:32;98602.81;;;11.82;62.24
60820;BME280;46641;48.904;9.126;2024-03-07T22:28:23;98600.50;;;11.79;62.14
60820;BME280;46641;48.904;9.126;2024-03-07T22:33:13;98593.94;;;11.75;62.60
60820;BME280;46641;48.904;9.126;2024-03-07T22:38:04;98596.69;;;11.73;62.54
60820;BME280;46641;48.904;9.126;2024-03-07T22:42:54;98595.34;;;11.69;61.97
60820;BME280;46641;48.904;9.126;2024-03-07T22:47:44;98587.97;;;11.64;62.10
60820;BME280;46641;48.904;9.126;2024-03-07T22:52:40;98574.16;;;11.62;62.46
60820;BME280;46641;48.904;9.126;2024-03-07T22:57:32;98569.09;;;11.61;62.39
60820;BME280;46641;48.904;9.126;2024-03-07T23:02:23;98569.91;;;11.61;62.38
60820;BME280;46641;48.904;9.126;2024-03-07T23:07:13;98564.16;;;11.58;62.49
60820;BME280;46641;48.904;9.126;2024-03-07T23:12:04;98563.63;;;11.54;62.49
60820;BME280;46641;48.904;9.126;2024-03-07T23:16:58;98549.16;;;11.50;62.52
60820;BME280;46641;48.904;9.126;2024-03-07T23:21:49;98555.56;;;11.48;62.36
60820;BME280;46641;48.904;9.126;2024-03-07T23:26:41;98548.81;;;11.45;62.34
60820;BME280;46641;48.904;9.126;2024-03-07T23:31:33;98547.31;;;11.42;62.70
60820;BME280;46641;48.904;9.126;2024-03-07T23:36:23;98542.53;;;11.38;62.64
60820;BME280;46641;48.904;9.126;2024-03-07T23:41:20;98538.25;;;11.37;61.52
60820;BME280;46641;48.904;9.126;2024-03-07T23:46:10;98533.31;;;11.34;62.64
60820;BME280;46641;48.904;9.126;2024-03-07T23:51:04;98528.38;;;11.31;63.04
60820;BME280;46641;48.904;9.126;2024-03-07T23:55:54;98524.44;;;11.27;62.81
